createdAt,value
2017-06-17T00:00:09.326Z,17.3
2017-06-17T00:01:11.068Z,17.1
2017-06-17T00:02:14.857Z,16.8
2017-06-17T00:03:16.761Z,16.6
2017-06-17T00:04:18.539Z,16.8
2017-06-17T00:05:20.407Z,16.6
2017-06-17T00:06:23.262Z,16.5
2017-06-17T00:07:25.021Z,17.4
2017-06-17T00:08:28.815Z,17.2
2017-06-17T00:09:30.586Z,17.7
2017-06-17T00:10:33.509Z,17.1
2017-06-17T00:11:35.270Z,17.0
2017-06-17T00:12:38.054Z,16.7
2017-06-17T00:13:39.886Z,17.2
2017-06-17T00:14:41.739Z,16.9
2017-06-17T00:15:43.489Z,17.1
2017-06-17T00:16:45.336Z,16.9
2017-06-17T00:17:47.083Z,17.0
2017-06-17T00:18:48.872Z,16.9
2017-06-17T00:19:50.641Z,17.3
2017-06-17T00:21:07.272Z,17.1
2017-06-17T00:22:09.024Z,17.0
2017-06-17T00:23:10.879Z,17.4
2017-06-17T00:24:12.610Z,17.3
2017-06-17T00:25:14.615Z,16.4
2017-06-17T00:26:16.321Z,16.8
2017-06-17T00:27:19.109Z,16.8
2017-06-17T00:28:20.824Z,17.3
2017-06-17T00:29:25.199Z,17.1
2017-06-17T00:30:27.067Z,16.8
2017-06-17T00:31:28.992Z,16.7
2017-06-17T00:32:30.817Z,16.9
2017-06-17T00:33:32.771Z,16.9
2017-06-17T00:34:34.494Z,16.9
2017-06-17T00:35:37.322Z,16.7
2017-06-17T00:36:39.097Z,16.5
2017-06-17T00:37:40.890Z,16.6
2017-06-17T00:38:42.617Z,16.7
2017-06-17T00:39:45.675Z,16.8
2017-06-17T00:40:47.403Z,17.0
2017-06-17T00:41:49.203Z,16.8
2017-06-17T00:42:50.987Z,17.3
2017-06-17T00:43:52.923Z,17.0
2017-06-17T00:44:54.610Z,17.5
2017-06-17T00:45:57.438Z,17.2
2017-06-17T00:46:59.159Z,17.0
2017-06-17T00:48:02.016Z,16.9
2017-06-17T00:49:03.738Z,17.1
2017-06-17T00:50:05.468Z,17.0
2017-06-17T00:51:07.214Z,16.8
2017-06-17T00:52:09.046Z,16.9
2017-06-17T00:53:10.827Z,16.6
2017-06-17T00:54:12.669Z,17.1
2017-06-17T00:55:14.514Z,16.2
2017-06-17T00:56:16.317Z,16.6
2017-06-17T00:57:18.095Z,17.1
2017-06-17T00:58:24.785Z,16.8
2017-06-17T00:59:26.930Z,16.9
2017-06-17T01:00:30.805Z,16.9
2017-06-17T01:01:32.505Z,17.6
2017-06-17T01:02:34.613Z,17.6
2017-06-17T01:03:36.373Z,18.3
2017-06-17T01:04:38.243Z,17.8
2017-06-17T01:05:39.973Z,17.8
2017-06-17T01:06:41.804Z,17.3
2017-06-17T01:07:44.545Z,17.2
2017-06-17T01:08:46.240Z,16.9
2017-06-17T01:09:48.055Z,17.1
2017-06-17T01:10:50.227Z,16.6
2017-06-17T01:11:51.967Z,16.5
2017-06-17T01:12:53.757Z,16.9
2017-06-17T01:13:55.500Z,16.9
2017-06-17T01:14:58.317Z,16.9
2017-06-17T01:15:59.976Z,17.3
2017-06-17T01:17:03.756Z,16.7
2017-06-17T01:18:05.516Z,16.9
2017-06-17T01:19:07.351Z,17.0
2017-06-17T01:20:09.003Z,17.2
2017-06-17T01:21:11.782Z,17.5
2017-06-17T01:22:13.500Z,17.5
2017-06-17T01:23:15.720Z,17.4
2017-06-17T01:24:17.479Z,17.7
2017-06-17T01:25:19.325Z,17.5
2017-06-17T01:26:21.075Z,17.7
2017-06-17T01:27:28.194Z,18.0
2017-06-17T01:28:29.910Z,17.9
2017-06-17T01:29:31.778Z,17.9
2017-06-17T01:30:33.525Z,17.8
2017-06-17T01:31:35.310Z,17.5
2017-06-17T01:32:37.077Z,17.6
2017-06-17T01:33:38.889Z,17.6
2017-06-17T01:34:40.637Z,17.0
2017-06-17T01:35:42.405Z,17.4
2017-06-17T01:36:44.161Z,17.3
2017-06-17T01:37:47.985Z,17.2
2017-06-17T01:38:49.747Z,17.2
2017-06-17T01:39:51.516Z,17.1
2017-06-17T01:40:53.303Z,17.2
2017-06-17T01:41:55.176Z,18.0
2017-06-17T01:42:56.859Z,17.3
2017-06-17T01:43:58.624Z,17.3
2017-06-17T01:45:00.388Z,17.6
2017-06-17T01:46:03.251Z,17.6
2017-06-17T01:47:05.007Z,17.6
2017-06-17T01:48:06.770Z,17.4
2017-06-17T01:49:09.625Z,17.3
2017-06-17T01:50:11.366Z,17.4
2017-06-17T01:51:13.307Z,17.7
2017-06-17T01:52:15.669Z,17.4
2017-06-17T01:53:32.290Z,17.6
2017-06-17T01:54:34.042Z,17.1
2017-06-17T01:55:35.885Z,17.8
2017-06-17T01:56:37.852Z,17.3
2017-06-17T01:57:44.282Z,17.6
2017-06-17T01:58:46.031Z,17.5
2017-06-17T01:59:49.766Z,17.3
2017-06-17T02:00:51.527Z,17.2
2017-06-17T02:02:00.344Z,17.2
2017-06-17T02:03:02.088Z,17.3
2017-06-17T02:04:03.938Z,17.3
2017-06-17T02:05:05.700Z,17.3
2017-06-17T02:06:08.463Z,17.0
2017-06-17T02:07:10.208Z,17.2
2017-06-17T02:08:14.129Z,16.7
2017-06-17T02:09:15.817Z,17.1
2017-06-17T02:10:17.674Z,17.4
2017-06-17T02:11:19.483Z,17.1
2017-06-17T02:12:25.863Z,17.0
2017-06-17T02:13:27.647Z,17.0
2017-06-17T02:14:36.345Z,16.7
2017-06-17T02:15:38.107Z,17.1
2017-06-17T02:16:39.956Z,16.7
2017-06-17T02:17:41.691Z,17.5
2017-06-17T02:18:49.338Z,17.3
2017-06-17T02:19:50.995Z,17.1
2017-06-17T02:20:54.774Z,18.2
2017-06-17T02:21:56.524Z,18.5
2017-06-17T02:22:58.310Z,18.4
2017-06-17T02:24:00.101Z,18.7
2017-06-17T02:25:04.003Z,18.3
2017-06-17T02:26:05.687Z,18.3
2017-06-17T02:27:07.573Z,17.9
2017-06-17T02:28:09.342Z,18.1
2017-06-17T02:29:11.061Z,18.0
2017-06-17T02:30:12.824Z,17.8
2017-06-17T02:31:16.733Z,17.6
2017-06-17T02:32:18.411Z,18.1
2017-06-17T02:33:20.251Z,18.5
2017-06-17T02:34:21.996Z,18.1
2017-06-17T02:35:23.655Z,18.0
2017-06-17T02:36:27.494Z,17.8
2017-06-17T02:37:29.270Z,18.4
2017-06-17T02:38:33.029Z,18.4
2017-06-17T02:39:34.754Z,17.6
2017-06-17T02:40:36.596Z,17.8
2017-06-17T02:41:38.312Z,18.5
2017-06-17T02:42:40.070Z,18.0
2017-06-17T02:43:41.798Z,18.1
2017-06-17T02:44:43.959Z,18.3
2017-06-17T02:45:45.717Z,18.2
2017-06-17T02:46:48.529Z,18.2
2017-06-17T02:47:50.263Z,18.2
2017-06-17T02:48:54.055Z,18.0
2017-06-17T02:49:55.786Z,18.5
2017-06-17T02:50:58.588Z,18.2
2017-06-17T02:52:00.368Z,18.1
2017-06-17T02:53:08.893Z,18.0
2017-06-17T02:54:10.645Z,17.9
2017-06-17T02:55:13.415Z,18.6
2017-06-17T02:56:15.167Z,18.2
2017-06-17T02:57:22.976Z,18.8
2017-06-17T02:58:24.770Z,18.4
2017-06-17T02:59:26.627Z,18.3
2017-06-17T03:00:28.370Z,18.3
2017-06-17T03:01:32.297Z,17.7
2017-06-17T03:02:34.047Z,18.0
2017-06-17T03:03:35.737Z,17.5
2017-06-17T03:04:38.589Z,18.2
2017-06-17T03:05:40.352Z,18.5
2017-06-17T03:06:43.149Z,17.9
2017-06-17T03:07:44.907Z,18.6
2017-06-17T03:08:48.738Z,18.0
2017-06-17T03:09:50.452Z,18.3
2017-06-17T03:10:52.199Z,18.1
2017-06-17T03:11:53.944Z,17.8
2017-06-17T03:12:56.137Z,17.8
2017-06-17T03:13:57.867Z,18.0
2017-06-17T03:14:59.618Z,18.0
2017-06-17T03:16:01.400Z,18.6
2017-06-17T03:17:03.159Z,17.8
2017-06-17T03:18:10.827Z,18.1
2017-06-17T03:19:12.510Z,18.3
2017-06-17T03:20:16.337Z,18.0
2017-06-17T03:21:18.132Z,17.5
2017-06-17T03:22:19.924Z,17.4
2017-06-17T03:23:22.099Z,18.2
2017-06-17T03:24:28.860Z,17.8
2017-06-17T03:25:30.640Z,18.0
2017-06-17T03:26:34.776Z,18.2
2017-06-17T03:27:36.438Z,18.1
2017-06-17T03:28:38.305Z,17.7
2017-06-17T03:29:40.057Z,17.7
2017-06-17T03:30:47.762Z,17.6
2017-06-17T03:31:49.495Z,17.4
2017-06-17T03:32:51.402Z,17.2
2017-06-17T03:33:53.074Z,17.2
2017-06-17T03:34:54.932Z,17.4
2017-06-17T03:35:56.720Z,17.5
2017-06-17T03:36:59.473Z,17.3
2017-06-17T03:38:01.227Z,16.9
2017-06-17T03:39:03.037Z,17.1
2017-06-17T03:40:04.755Z,17.2
2017-06-17T03:41:06.558Z,17.2
2017-06-17T03:42:08.296Z,17.0
2017-06-17T03:43:12.061Z,17.4
2017-06-17T03:44:13.822Z,17.6
2017-06-17T03:45:15.558Z,17.5
2017-06-17T03:46:19.390Z,17.5
2017-06-17T03:47:21.144Z,17.3
2017-06-17T03:48:24.995Z,17.6
2017-06-17T03:49:26.712Z,17.8
2017-06-17T03:50:28.529Z,17.6
2017-06-17T03:51:30.252Z,17.6
2017-06-17T03:52:32.120Z,17.7
2017-06-17T03:53:33.888Z,17.6
2017-06-17T03:54:35.742Z,17.4
2017-06-17T03:55:37.399Z,17.4
2017-06-17T03:56:39.252Z,16.8
2017-06-17T03:57:41.122Z,17.0
2017-06-17T03:58:47.750Z,17.1
2017-06-17T03:59:49.502Z,17.0
2017-06-17T04:00:51.353Z,17.4
2017-06-17T04:01:53.124Z,17.3
2017-06-17T04:02:54.886Z,17.4
2017-06-17T04:03:57.687Z,17.5
2017-06-17T04:04:59.404Z,17.0
2017-06-17T04:06:01.138Z,17.0
2017-06-17T04:07:03.884Z,16.9
2017-06-17T04:08:05.612Z,17.2
2017-06-17T04:09:07.433Z,16.3
2017-06-17T04:10:09.177Z,16.9
2017-06-17T04:11:11.087Z,16.8
2017-06-17T04:12:12.772Z,16.5
2017-06-17T04:13:29.362Z,16.8
2017-06-17T04:14:31.081Z,17.1
2017-06-17T04:15:32.904Z,16.5
2017-06-17T04:16:34.706Z,16.0
2017-06-17T04:17:38.515Z,16.3
2017-06-17T04:18:40.627Z,16.7
2017-06-17T04:19:42.477Z,16.7
2017-06-17T04:20:44.139Z,17.1
2017-06-17T04:21:46.051Z,17.1
2017-06-17T04:22:47.824Z,16.3
2017-06-17T04:23:49.541Z,16.7
2017-06-17T04:24:51.305Z,17.0
2017-06-17T04:25:58.850Z,17.1
2017-06-17T04:27:00.598Z,17.0
2017-06-17T04:28:02.485Z,17.2
2017-06-17T04:29:04.177Z,17.2
2017-06-17T04:30:07.985Z,17.5
2017-06-17T04:31:09.896Z,17.2
2017-06-17T04:32:11.629Z,17.2
2017-06-17T04:33:13.372Z,16.1
2017-06-17T04:34:16.152Z,16.6
2017-06-17T04:35:17.934Z,16.2
2017-06-17T04:36:19.711Z,16.5
2017-06-17T04:37:21.460Z,16.7
2017-06-17T04:38:23.135Z,17.1
2017-06-17T04:39:24.961Z,16.9
2017-06-17T04:40:26.709Z,16.0
2017-06-17T04:41:28.616Z,16.1
2017-06-17T04:42:30.508Z,16.7
2017-06-17T04:43:33.365Z,17.2
2017-06-17T04:44:35.096Z,16.6
2017-06-17T04:45:49.951Z,16.5
2017-06-17T04:46:51.730Z,16.5
2017-06-17T04:47:53.648Z,16.4
2017-06-17T04:48:55.413Z,16.3
2017-06-17T04:49:57.300Z,16.5
2017-06-17T04:50:59.133Z,16.3
2017-06-17T04:52:00.970Z,16.4
2017-06-17T04:53:02.699Z,16.5
2017-06-17T04:54:10.685Z,16.3
2017-06-17T04:55:12.444Z,16.7
2017-06-17T04:56:14.271Z,16.3
2017-06-17T04:57:16.064Z,15.8
2017-06-17T04:58:17.912Z,16.2
2017-06-17T04:59:19.706Z,16.0
2017-06-17T05:00:21.537Z,16.3
2017-06-17T05:01:23.372Z,16.3
2017-06-17T05:02:31.907Z,16.2
2017-06-17T05:03:33.683Z,16.3
2017-06-17T05:04:37.556Z,16.0
2017-06-17T05:05:39.299Z,16.0
2017-06-17T05:06:42.157Z,16.1
2017-06-17T05:07:43.941Z,15.2
2017-06-17T05:08:46.796Z,15.6
2017-06-17T05:09:48.495Z,16.1
2017-06-17T05:10:56.904Z,16.1
2017-06-17T05:11:58.635Z,16.2
2017-06-17T05:13:02.459Z,16.0
2017-06-17T05:14:04.141Z,16.0
2017-06-17T05:15:05.934Z,16.0
2017-06-17T05:16:07.695Z,16.5
2017-06-17T05:17:10.760Z,16.3
2017-06-17T05:18:12.514Z,16.2
2017-06-17T05:19:18.818Z,16.6
2017-06-17T05:20:20.719Z,17.0
2017-06-17T05:21:24.528Z,16.8
2017-06-17T05:22:26.367Z,16.8
2017-06-17T05:23:29.173Z,16.9
2017-06-17T05:24:30.971Z,16.9
2017-06-17T05:25:37.552Z,17.4
2017-06-17T05:26:39.429Z,17.4
2017-06-17T05:50:30.879Z,16.6
2017-06-17T05:51:32.773Z,17.6
2017-06-17T05:52:39.467Z,17.7
2017-06-17T05:53:41.320Z,17.6
2017-06-17T05:54:44.122Z,17.9
2017-06-17T05:55:45.904Z,16.8
2017-06-17T06:02:47.856Z,16.7
2017-06-17T06:03:56.403Z,0.0
2017-06-17T06:04:58.123Z,0.0
2017-06-17T06:06:00.153Z,0.0
2017-06-17T06:07:01.842Z,0.0
2017-06-17T06:08:03.807Z,0.0
2017-06-17T06:09:05.565Z,0.0
2017-06-17T06:10:07.360Z,0.0
2017-06-17T06:11:09.095Z,0.0
2017-06-17T06:12:11.949Z,0.0
2017-06-17T06:13:13.733Z,0.0
2017-06-17T06:14:16.596Z,0.0
2017-06-17T06:15:18.341Z,0.0
2017-06-17T06:16:20.177Z,0.0
2017-06-17T06:17:21.917Z,0.0
2017-06-17T06:18:24.034Z,0.0
2017-06-17T06:19:25.873Z,0.0
2017-06-17T06:20:27.778Z,0.0
2017-06-17T06:21:29.576Z,0.0
2017-06-17T06:22:31.582Z,0.0
2017-06-17T06:23:33.502Z,0.0
2017-06-17T06:24:35.419Z,0.0
2017-06-17T06:25:37.562Z,0.0
2017-06-17T06:26:39.379Z,0.0
2017-06-17T06:27:41.280Z,0.0
2017-06-17T06:28:43.091Z,0.0
2017-06-17T06:29:45.460Z,0.0
2017-06-17T06:30:47.326Z,0.0
2017-06-17T06:31:49.320Z,0.0
2017-06-17T06:32:52.487Z,0.0
2017-06-17T06:33:54.232Z,0.0
2017-06-17T06:34:56.287Z,0.0
2017-06-17T06:35:57.986Z,0.0
2017-06-17T06:37:00.025Z,0.0
2017-06-17T06:38:01.750Z,0.0
2017-06-17T06:39:05.594Z,0.0
2017-06-17T06:40:07.399Z,0.0
2017-06-17T06:41:09.189Z,0.0
2017-06-17T06:42:11.370Z,0.0
2017-06-17T06:43:13.199Z,0.0
2017-06-17T06:44:14.944Z,0.0
2017-06-17T06:45:16.851Z,0.0
2017-06-17T06:46:18.654Z,0.0
2017-06-17T06:47:20.492Z,0.0
2017-06-17T06:48:22.273Z,0.0
2017-06-17T06:49:30.109Z,0.0
2017-06-17T06:50:31.882Z,0.0
2017-06-17T06:51:00.057Z,4.8
2017-06-17T06:51:33.660Z,0.0
2017-06-17T06:52:01.640Z,5.8
2017-06-17T06:52:35.401Z,0.0
2017-06-17T06:53:37.217Z,0.0
2017-06-17T06:53:53.248Z,5.1
2017-06-17T06:54:38.958Z,0.0
2017-06-17T06:54:54.821Z,5.4
2017-06-17T06:55:40.736Z,0.0
2017-06-17T06:56:42.687Z,0.0
2017-06-17T06:56:46.466Z,5.4
2017-06-17T06:57:44.465Z,0.0
2017-06-17T06:57:48.042Z,5.5
2017-06-17T06:58:46.226Z,0.0
2017-06-17T06:59:39.655Z,5.2
2017-06-17T06:59:48.015Z,0.0
2017-06-17T07:00:41.288Z,5.7
2017-06-17T07:00:49.802Z,0.0
2017-06-17T07:01:51.603Z,0.0
2017-06-17T07:02:32.953Z,5.0
2017-06-17T07:02:53.426Z,0.0
2017-06-17T07:03:34.532Z,4.9
2017-06-17T07:03:55.160Z,0.0
2017-06-17T07:04:57.051Z,0.0
2017-06-17T07:05:27.147Z,4.6
2017-06-17T07:05:58.835Z,0.0
2017-06-17T07:06:28.724Z,4.7
2017-06-17T07:07:00.545Z,0.0
2017-06-17T07:08:02.317Z,0.0
2017-06-17T07:08:20.369Z,5.4
2017-06-17T07:09:04.433Z,0.0
2017-06-17T07:09:21.963Z,4.8
2017-06-17T07:10:06.284Z,0.0
2017-06-17T07:11:08.150Z,0.0
2017-06-17T07:11:13.575Z,5.6
2017-06-17T07:12:09.892Z,0.0
2017-06-17T07:12:15.155Z,5.4
2017-06-17T07:13:11.897Z,0.0
2017-06-17T07:14:06.804Z,4.6
2017-06-17T07:14:13.637Z,0.0
2017-06-17T07:15:08.387Z,4.8
2017-06-17T07:15:15.489Z,0.0
2017-06-17T07:16:17.247Z,0.0
2017-06-17T07:16:59.990Z,4.7
2017-06-17T07:17:19.043Z,0.0
2017-06-17T07:18:01.568Z,5.0
2017-06-17T07:18:20.787Z,0.0
2017-06-17T07:19:22.532Z,0.0
2017-06-17T07:19:53.220Z,4.9
2017-06-17T07:20:24.389Z,0.0
2017-06-17T07:20:54.801Z,4.9
2017-06-17T07:21:26.254Z,0.0
2017-06-17T07:22:28.091Z,0.0
2017-06-17T07:22:47.434Z,4.6
2017-06-17T07:23:29.964Z,0.0
2017-06-17T07:23:49.011Z,4.5
2017-06-17T07:24:31.775Z,0.0
2017-06-17T07:25:33.657Z,0.0
2017-06-17T07:25:40.661Z,4.4
2017-06-17T07:26:35.488Z,0.0
2017-06-17T07:26:42.240Z,4.6
2017-06-17T07:27:37.306Z,0.0
2017-06-17T07:28:33.870Z,6.6
2017-06-17T07:28:39.098Z,0.0
2017-06-17T07:29:35.446Z,5.6
2017-06-17T07:29:40.942Z,0.0
2017-06-17T07:30:42.809Z,0.0
2017-06-17T07:31:28.114Z,4.6
2017-06-17T07:31:44.677Z,0.0
2017-06-17T07:32:29.701Z,4.8
2017-06-17T07:32:46.498Z,0.0
2017-06-17T07:33:48.318Z,0.0
2017-06-17T07:34:21.418Z,4.6
2017-06-17T07:34:50.075Z,0.0
2017-06-17T07:35:22.996Z,4.6
2017-06-17T07:35:52.176Z,0.0
2017-06-17T07:36:53.982Z,0.0
2017-06-17T07:37:14.640Z,4.7
2017-06-17T07:37:55.894Z,0.0
2017-06-17T07:38:16.217Z,4.7
2017-06-17T07:38:58.185Z,0.0
2017-06-17T07:39:59.965Z,0.0
2017-06-17T07:40:07.828Z,4.5
2017-06-17T07:41:01.860Z,0.0
2017-06-17T07:41:09.412Z,5.1
2017-06-17T07:42:03.689Z,0.0
2017-06-17T07:43:01.069Z,4.7
2017-06-17T07:43:05.448Z,0.0
2017-06-17T07:44:02.652Z,4.6
2017-06-17T07:44:07.208Z,0.0
2017-06-17T07:45:09.148Z,0.0
2017-06-17T07:45:55.282Z,4.6
2017-06-17T07:46:11.100Z,0.0
2017-06-17T07:46:56.857Z,4.9
2017-06-17T07:47:12.975Z,0.0
2017-06-17T07:48:14.813Z,0.0
2017-06-17T07:48:48.505Z,5.2
2017-06-17T07:49:16.587Z,0.0
2017-06-17T07:49:50.087Z,5.5
2017-06-17T07:50:18.555Z,0.0
2017-06-17T07:51:20.327Z,0.0
2017-06-17T07:51:41.701Z,4.4
2017-06-17T07:52:22.295Z,0.0
2017-06-17T07:52:43.280Z,4.8
2017-06-17T07:53:24.677Z,0.0
2017-06-17T07:54:26.441Z,0.0
2017-06-17T07:54:34.942Z,4.4
2017-06-17T07:55:28.279Z,0.0
2017-06-17T07:55:36.517Z,4.5
2017-06-17T07:56:30.161Z,0.0
2017-06-17T07:57:29.143Z,4.5
2017-06-17T07:57:31.829Z,0.0
2017-06-17T07:58:30.717Z,5.4
2017-06-17T07:58:33.678Z,0.0
2017-06-17T07:59:35.448Z,0.0
2017-06-17T08:00:22.358Z,4.3
2017-06-17T08:00:37.109Z,0.0
2017-06-17T08:01:23.973Z,4.6
2017-06-17T08:01:38.894Z,0.0
2017-06-17T08:02:40.656Z,0.0
2017-06-17T08:03:15.597Z,6.1
2017-06-17T08:03:42.480Z,0.0
2017-06-17T08:04:17.175Z,5.9
2017-06-17T08:04:44.226Z,0.0
2017-06-17T08:05:46.060Z,0.0
2017-06-17T08:06:08.826Z,5.2
2017-06-17T08:06:47.822Z,0.0
2017-06-17T08:07:10.406Z,5.1
2017-06-17T08:07:49.698Z,0.0
2017-06-17T08:08:51.438Z,0.0
2017-06-17T08:09:02.041Z,6.1
2017-06-17T08:09:53.144Z,0.0
2017-06-17T08:10:03.646Z,5.6
2017-06-17T08:10:54.901Z,0.0
2017-06-17T08:11:55.351Z,5.1
2017-06-17T08:11:56.693Z,0.0
2017-06-17T08:12:56.950Z,5.6
2017-06-17T08:12:58.427Z,0.0
2017-06-17T08:14:00.442Z,0.0
2017-06-17T08:14:48.584Z,5.2
2017-06-17T08:15:02.212Z,0.0
2017-06-17T08:15:50.193Z,5.3
2017-06-17T08:16:04.062Z,0.0
2017-06-17T08:17:05.885Z,0.0
2017-06-17T08:17:41.851Z,6.0
2017-06-17T08:18:07.678Z,0.0
2017-06-17T08:18:43.950Z,5.8
2017-06-17T08:19:09.427Z,0.0
2017-06-17T08:20:11.230Z,0.0
2017-06-17T08:20:36.570Z,4.9
2017-06-17T08:21:13.020Z,0.0
2017-06-17T08:21:38.157Z,5.3
2017-06-17T08:22:14.831Z,0.0
2017-06-17T08:23:17.867Z,0.0
2017-06-17T08:23:29.814Z,5.1
2017-06-17T08:24:19.793Z,0.0
2017-06-17T08:24:31.431Z,5.2
2017-06-17T08:25:21.692Z,0.0
2017-06-17T08:26:23.090Z,5.7
2017-06-17T08:26:23.852Z,0.0
2017-06-17T08:27:24.766Z,5.2
2017-06-17T08:27:26.438Z,0.0
2017-06-17T08:28:28.168Z,0.0
2017-06-17T08:29:16.467Z,4.9
2017-06-17T08:29:30.030Z,0.0
2017-06-17T08:30:18.088Z,5.0
2017-06-17T08:30:31.771Z,0.0
2017-06-17T08:31:33.473Z,0.0
2017-06-17T08:32:09.721Z,5.4
2017-06-17T08:32:35.379Z,0.0
2017-06-17T08:33:11.304Z,4.3
2017-06-17T08:33:37.364Z,0.0
2017-06-17T08:34:39.183Z,0.0
2017-06-17T08:35:03.966Z,4.4
2017-06-17T08:35:41.148Z,0.0
2017-06-17T08:36:05.565Z,5.1
2017-06-17T08:36:42.929Z,0.0
2017-06-17T08:37:44.979Z,0.0
2017-06-17T08:37:57.187Z,5.0
2017-06-17T08:38:46.718Z,0.0
2017-06-17T08:38:58.770Z,5.3
2017-06-17T08:39:48.865Z,0.0
2017-06-17T08:40:50.428Z,5.0
2017-06-17T08:40:50.559Z,0.0
2017-06-17T08:41:52.007Z,5.1
2017-06-17T08:41:52.334Z,0.0
2017-06-17T08:42:54.064Z,0.0
2017-06-17T08:43:43.655Z,5.5
2017-06-17T08:43:55.844Z,0.0
2017-06-17T08:44:45.226Z,5.2
2017-06-17T08:44:57.576Z,0.0
2017-06-17T08:45:59.530Z,0.0
2017-06-17T08:46:37.894Z,4.9
2017-06-17T08:47:01.188Z,0.0
2017-06-17T08:47:39.514Z,4.8
2017-06-17T08:48:03.048Z,0.0
2017-06-17T08:49:04.791Z,0.0
2017-06-17T08:49:32.168Z,4.8
2017-06-17T08:50:06.548Z,0.0
2017-06-17T08:50:33.787Z,5.2
2017-06-17T08:51:08.279Z,0.0
2017-06-17T08:52:10.130Z,0.0
2017-06-17T08:52:25.481Z,5.2
2017-06-17T08:53:11.815Z,0.0
2017-06-17T08:53:27.056Z,5.3
2017-06-17T08:54:13.624Z,0.0
2017-06-17T08:55:15.465Z,0.0
2017-06-17T08:55:18.710Z,4.9
2017-06-17T08:56:17.296Z,0.0
2017-06-17T08:56:20.284Z,5.1
2017-06-17T08:57:19.084Z,0.0
2017-06-17T08:58:13.003Z,5.7
2017-06-17T08:58:20.924Z,0.0
2017-06-17T08:59:14.629Z,5.5
2017-06-17T08:59:22.577Z,0.0
2017-06-17T09:00:24.407Z,0.0
2017-06-17T09:01:07.246Z,5.0
2017-06-17T09:01:26.150Z,0.0
2017-06-17T09:02:08.870Z,5.2
2017-06-17T09:02:27.848Z,0.0
2017-06-17T09:03:29.849Z,0.0
2017-06-17T09:04:00.551Z,5.5
2017-06-17T09:04:31.631Z,0.0
2017-06-17T09:05:02.150Z,5.5
2017-06-17T09:05:33.480Z,0.0
2017-06-17T09:06:35.233Z,0.0
2017-06-17T09:06:53.840Z,5.4
2017-06-17T09:07:37.095Z,0.0
2017-06-17T09:07:55.439Z,5.9
2017-06-17T09:08:38.895Z,0.0
2017-06-17T09:09:40.629Z,0.0
2017-06-17T09:09:48.140Z,5.6
2017-06-17T09:10:42.528Z,0.0
2017-06-17T09:10:49.729Z,5.2
2017-06-17T09:11:44.362Z,0.0
2017-06-17T09:12:41.371Z,5.1
2017-06-17T09:12:46.053Z,0.0
2017-06-17T09:13:42.957Z,5.1
2017-06-17T09:13:47.881Z,0.0
2017-06-17T09:14:49.728Z,0.0
2017-06-17T09:15:34.823Z,5.1
2017-06-17T09:15:51.561Z,0.0
2017-06-17T09:16:36.513Z,5.7
2017-06-17T09:16:53.294Z,0.0
2017-06-17T09:17:55.188Z,0.0
2017-06-17T09:18:28.199Z,5.9
2017-06-17T09:18:57.099Z,0.0
2017-06-17T09:19:29.871Z,5.6
2017-06-17T09:19:59.024Z,0.0
2017-06-17T09:21:00.811Z,0.0
2017-06-17T09:21:22.566Z,5.7
2017-06-17T09:22:02.673Z,0.0
2017-06-17T09:22:24.171Z,6.1
2017-06-17T09:23:04.497Z,0.0
2017-06-17T09:24:06.223Z,0.0
2017-06-17T09:24:15.837Z,5.8
2017-06-17T09:25:07.961Z,0.0
2017-06-17T09:25:17.427Z,5.3
2017-06-17T09:26:09.714Z,0.0
2017-06-17T09:27:10.098Z,5.0
2017-06-17T09:27:11.467Z,0.0
2017-06-17T09:28:11.703Z,5.4
2017-06-17T09:28:13.303Z,0.0
2017-06-17T09:29:15.053Z,0.0
2017-06-17T09:30:03.344Z,5.6
2017-06-17T09:30:16.904Z,0.0
2017-06-17T09:31:04.922Z,5.4
2017-06-17T09:31:18.650Z,0.0
2017-06-17T09:32:20.605Z,0.0
2017-06-17T09:32:56.609Z,6.2
2017-06-17T09:33:22.425Z,0.0
2017-06-17T09:33:58.216Z,5.7
2017-06-17T09:34:24.102Z,0.0
2017-06-17T09:35:25.932Z,0.0
2017-06-17T09:35:49.852Z,5.9
2017-06-17T09:36:27.787Z,0.0
2017-06-17T09:36:51.446Z,5.6
2017-06-17T09:37:29.595Z,0.0
2017-06-17T09:38:31.383Z,0.0
2017-06-17T09:38:43.119Z,6.3
2017-06-17T09:39:33.198Z,0.0
2017-06-17T09:39:44.704Z,5.8
2017-06-17T09:40:35.038Z,0.0
2017-06-17T09:41:36.352Z,5.6
2017-06-17T09:41:36.793Z,0.0
2017-06-17T09:42:37.946Z,6.0
2017-06-17T09:42:38.587Z,0.0
2017-06-17T09:43:40.323Z,0.0
2017-06-17T09:44:29.606Z,6.1
2017-06-17T09:44:42.230Z,0.0
2017-06-17T09:45:31.898Z,6.3
2017-06-17T09:45:43.952Z,0.0
2017-06-17T09:46:45.855Z,0.0
2017-06-17T09:47:23.532Z,5.7
2017-06-17T09:47:47.662Z,0.0
2017-06-17T09:48:25.128Z,6.3
2017-06-17T09:48:49.537Z,0.0
2017-06-17T09:49:51.397Z,0.0
2017-06-17T09:50:16.788Z,6.6
2017-06-17T09:50:53.177Z,0.0
2017-06-17T09:51:18.368Z,6.9
2017-06-17T09:51:54.941Z,0.0
2017-06-17T09:52:56.734Z,0.0
2017-06-17T09:53:10.016Z,5.9
2017-06-17T09:53:58.525Z,0.0
2017-06-17T09:54:11.646Z,5.8
2017-06-17T09:55:00.304Z,0.0
2017-06-17T09:56:02.185Z,0.0
2017-06-17T09:56:03.374Z,5.6
2017-06-17T09:57:03.910Z,0.0
2017-06-17T09:57:04.950Z,5.8
2017-06-17T09:58:05.679Z,0.0
2017-06-17T09:58:56.583Z,6.1
2017-06-17T09:59:07.501Z,0.0
2017-06-17T09:59:58.198Z,6.4
2017-06-17T10:00:09.219Z,0.0
2017-06-17T10:01:10.994Z,0.0
2017-06-17T10:01:49.897Z,6.0
2017-06-17T10:02:12.792Z,0.0
2017-06-17T10:02:51.478Z,5.7
2017-06-17T10:03:14.554Z,0.0
2017-06-17T10:04:16.380Z,0.0
2017-06-17T10:04:43.112Z,6.4
2017-06-17T10:05:18.166Z,0.0
2017-06-17T10:05:44.689Z,6.4
2017-06-17T10:06:20.141Z,0.0
2017-06-17T10:07:21.912Z,0.0
2017-06-17T10:07:36.350Z,7.2
2017-06-17T10:08:23.773Z,0.0
2017-06-17T10:08:37.939Z,6.0
2017-06-17T10:09:25.862Z,0.0
2017-06-17T10:10:27.677Z,0.0
2017-06-17T10:10:30.020Z,5.9
2017-06-17T10:11:29.356Z,0.0
2017-06-17T10:11:31.636Z,5.5
2017-06-17T10:12:31.163Z,0.0
2017-06-17T10:13:24.296Z,6.2
2017-06-17T10:13:32.926Z,0.0
2017-06-17T10:14:25.883Z,6.5
2017-06-17T10:14:34.672Z,0.0
2017-06-17T10:15:36.489Z,0.0
2017-06-17T10:16:17.545Z,6.6
2017-06-17T10:16:38.248Z,0.0
2017-06-17T10:17:19.484Z,6.8
2017-06-17T10:17:40.168Z,0.0
2017-06-17T10:18:41.932Z,0.0
2017-06-17T10:19:11.162Z,6.6
2017-06-17T10:19:43.685Z,0.0
2017-06-17T10:20:12.748Z,5.9
2017-06-17T10:20:45.358Z,0.0
2017-06-17T10:21:47.083Z,0.0
2017-06-17T10:22:36.547Z,7.5
2017-06-17T10:22:48.900Z,0.0
2017-06-17T10:23:38.230Z,8.3
2017-06-17T10:23:50.705Z,0.0
2017-06-17T10:24:52.715Z,0.0
2017-06-17T10:25:30.249Z,9.5
2017-06-17T10:25:54.454Z,0.0
2017-06-17T10:26:31.954Z,9.5
2017-06-17T10:26:56.251Z,0.0
2017-06-17T10:27:58.024Z,0.0
2017-06-17T10:28:23.631Z,10.6
2017-06-17T10:28:59.853Z,0.0
2017-06-17T10:29:25.220Z,10.2
2017-06-17T10:30:01.668Z,0.0
2017-06-17T10:31:03.344Z,0.0
2017-06-17T10:31:16.881Z,10.6
2017-06-17T10:32:05.099Z,0.0
2017-06-17T10:32:18.490Z,10.9
2017-06-17T10:33:08.144Z,0.0
2017-06-17T10:34:09.840Z,0.0
2017-06-17T10:34:10.109Z,10.2
2017-06-17T10:35:11.652Z,0.0
2017-06-17T10:35:11.705Z,10.0
2017-06-17T10:36:13.396Z,0.0
2017-06-17T10:37:03.473Z,8.9
2017-06-17T10:37:15.175Z,0.0
2017-06-17T10:38:05.057Z,9.0
2017-06-17T10:38:16.987Z,0.0
2017-06-17T10:39:18.813Z,0.0
2017-06-17T10:39:56.722Z,8.5
2017-06-17T10:40:20.571Z,0.0
2017-06-17T10:40:58.328Z,8.2
2017-06-17T10:41:22.423Z,0.0
2017-06-17T10:42:24.195Z,0.0
2017-06-17T10:42:49.995Z,9.5
2017-06-17T10:43:26.121Z,0.0
2017-06-17T10:43:51.604Z,9.3
2017-06-17T10:44:27.890Z,0.0
2017-06-17T10:45:29.789Z,0.0
2017-06-17T10:45:43.222Z,9.5
2017-06-17T10:46:31.923Z,0.0
2017-06-17T10:46:44.814Z,8.9
2017-06-17T10:47:33.757Z,0.0
2017-06-17T10:48:35.418Z,0.0
2017-06-17T10:48:36.469Z,9.9
2017-06-17T10:49:37.223Z,0.0
2017-06-17T10:49:38.059Z,9.1
2017-06-17T10:50:39.167Z,0.0
2017-06-17T10:51:29.673Z,9.5
2017-06-17T10:51:41.000Z,0.0
2017-06-17T10:52:31.266Z,9.8
2017-06-17T10:52:42.723Z,0.0
2017-06-17T10:53:44.554Z,0.0
2017-06-17T10:54:22.926Z,8.7
2017-06-17T10:54:46.311Z,0.0
2017-06-17T10:55:24.525Z,8.8
2017-06-17T10:55:48.193Z,0.0
2017-06-17T10:56:49.916Z,0.0
2017-06-17T10:57:16.179Z,9.2
2017-06-17T10:57:51.867Z,0.0
2017-06-17T10:58:17.768Z,9.0
2017-06-17T10:58:53.593Z,0.0
2017-06-17T10:59:55.490Z,0.0
2017-06-17T11:00:09.474Z,8.8
2017-06-17T11:00:57.279Z,0.0
2017-06-17T11:01:11.046Z,7.7
2017-06-17T11:01:59.055Z,0.0
2017-06-17T11:03:00.879Z,0.0
2017-06-17T11:03:02.687Z,9.0
2017-06-17T11:04:02.761Z,0.0
2017-06-17T11:04:04.427Z,8.9
2017-06-17T11:05:04.501Z,0.0
2017-06-17T11:05:56.101Z,8.8
2017-06-17T11:06:06.720Z,0.0
2017-06-17T11:06:57.728Z,8.9
2017-06-17T11:07:08.381Z,0.0
2017-06-17T11:08:10.238Z,0.0
2017-06-17T11:08:50.362Z,9.7
2017-06-17T11:09:12.009Z,0.0
2017-06-17T11:09:51.959Z,10.1
2017-06-17T11:10:13.760Z,0.0
2017-06-17T11:11:15.504Z,0.0
2017-06-17T11:11:43.624Z,9.6
2017-06-17T11:12:17.379Z,0.0
2017-06-17T11:12:45.247Z,9.3
2017-06-17T11:13:19.187Z,0.0
2017-06-17T11:14:21.007Z,0.0
2017-06-17T11:14:37.891Z,10.5
2017-06-17T11:15:22.910Z,0.0
2017-06-17T11:15:39.489Z,10.8
2017-06-17T11:16:24.870Z,0.0
2017-06-17T11:17:26.523Z,0.0
2017-06-17T11:17:31.149Z,9.8
2017-06-17T11:18:28.500Z,0.0
2017-06-17T11:18:32.734Z,9.9
2017-06-17T11:19:30.326Z,0.0
2017-06-17T11:20:24.377Z,9.0